• Join FlightAware (Why Join?)
  • Login
  • US Flag 
05:36AM EDT


 

Airport Tracker/Info


-or-


 

Live Flight TrackerFlight Track Log ✈ SWA1181 ✈ 29-Jun-2013 ✈ KFNT - KMCO

Flight Track Log - Related Links

Times and Time Zones

All times are in EDT time to prevent confusion due to time zone crossing. See the SWA1181 flight status page for this flight to view local times or setup timezone preferences in your user account.

Time Position Orientation Groundspeed Altitude Reporting Facility
EDT Latitude Longitude Course Direction KTS MPH feet Rate Location/Type
06:58AM 42.9717 -83.8039 North 173 199 2,900  Level Cleveland Center
06:59AM 43.0156 -83.8006 North 240 276 5,600 2,640 Climbing Cleveland Center
07:00AM 43.0447 -83.7225 63° Northeast 216 249 8,200 3,240 Climbing Cleveland Center
07:01AM 43.0728 -83.6131 71° East 253 291 12,100 3,600 Climbing Cleveland Center
07:02AM 43.0464 -83.5036 108° East 282 325 15,400 2,700 Climbing Cleveland Center
07:03AM 42.9508 -83.4936 176° South 243 280 17,500 2,220 Climbing Cleveland Center
07:04AM 42.8444 -83.4886 178° South 332 382 19,900 2,520 Climbing Cleveland Center
07:05AM 42.7322 -83.4833 178° South 364 419 22,600 2,580 Climbing Cleveland Center
07:06AM 42.6175 -83.4781 178° South 399 459 25,100 2,280 Climbing Cleveland Center
07:07AM 42.4989 -83.4756 179° South 419 482 27,200 1,680 Climbing Cleveland Center
07:08AM 42.3739 -83.4697 178° South 445 512 28,500 1,440 Climbing Cleveland Center
07:09AM 42.2469 -83.4639 178° South 450 518 30,100 1,860 Climbing Cleveland Center
07:10AM 42.1156 -83.4636 180° South 460 529 32,300 2,160 Climbing Cleveland Center
07:11AM 41.9942 -83.4778 185° South 460 529 34,500 1,320 Climbing Cleveland Center
07:12AM 41.8872 -83.5119 193° South 452 520 35,000 240 Climbing Cleveland Center
07:13AM 41.7650 -83.5536 194° South 447 514 35,000  Level Cleveland Center
07:14AM 41.6453 -83.5925 194° South 447 514 35,000 420 Level Cleveland Center
07:15AM 41.5253 -83.6342 195° South 447 514 35,900 1,080 Climbing Cleveland Center
07:16AM 41.4053 -83.6756 195° South 447 514 37,200 1,020 Climbing Cleveland Center
07:17AM 41.2875 -83.7142 194° South 447 514 38,000 360 Climbing Cleveland Center
07:18AM 41.1697 -83.7556 195° South 437 503 38,000  Level Cleveland Center
07:18AM 41.0908 -83.7786 192° South 437 503 38,000  Level Indianapolis Center
07:20AM 40.9728 -83.8169 194° South 439 505 38,000  Level Indianapolis Center
07:21AM 40.8539 -83.8586 195° South 440 506 38,000  Level Indianapolis Center
07:22AM 40.7344 -83.8969 194° South 439 505 38,000  Level Indianapolis Center
07:23AM 40.6167 -83.9356 194° South 436 502 38,000  Level Indianapolis Center
07:24AM 40.4975 -83.9739 194° South 437 503 38,000  Level Indianapolis Center
07:25AM 40.3792 -84.0131 194° South 437 503 38,000  Level Indianapolis Center
07:26AM 40.2594 -84.0483 193° South 438 504 38,000  Level Indianapolis Center
07:27AM 40.1378 -84.0686 187° South 442 509 38,000  Level Indianapolis Center
07:28AM 40.0164 -84.0883 187° South 439 505 38,000  Level Indianapolis Center
07:29AM 39.8728 -84.1119 187° South 443 510 38,000  Level Indianapolis Center
07:30AM 39.7500 -84.1317 187° South 442 509 38,000  Level Indianapolis Center
07:31AM 39.6281 -84.1525 187° South 441 507 38,000  Level Indianapolis Center
07:32AM 39.5053 -84.1731 187° South 442 509 38,000  Level Indianapolis Center
07:33AM 39.3850 -84.1928 187° South 434 499 38,000  Level Indianapolis Center
07:34AM 39.2617 -84.2119 187° South 441 507 38,000  Level Indianapolis Center
07:35AM 39.1406 -84.2336 188° South 437 503 38,000  Level Indianapolis Center
07:36AM 39.0203 -84.2522 187° South 432 497 38,000  Level Indianapolis Center
07:37AM 38.9000 -84.2708 187° South 433 498 38,000  Level Indianapolis Center
07:38AM 38.7803 -84.2906 187° South 430 495 38,000  Level Indianapolis Center
07:39AM 38.6594 -84.3075 186° South 433 498 38,000  Level Indianapolis Center
07:40AM 38.5314 -84.2928 175° South 446 513 38,000  Level Indianapolis Center
07:41AM 38.4083 -84.2742 173° South 445 512 38,000  Level Indianapolis Center
07:42AM 38.2856 -84.2553 173° South 444 511 38,000  Level Indianapolis Center
07:43AM 38.1636 -84.2353 173° South 442 509 38,000  Level Indianapolis Center
07:44AM 38.0431 -84.2175 173° South 437 503 38,000  Level Indianapolis Center
07:45AM 37.9228 -84.1964 172° South 436 502 38,000  Level Indianapolis Center
07:46AM 37.8011 -84.1792 174° South 438 504 38,000  Level Indianapolis Center
07:47AM 37.6586 -84.1572 173° South 442 509 38,000  Level Indianapolis Center
07:48AM 37.5372 -84.1383 173° South 439 505 38,000  Level Indianapolis Center
07:49AM 37.4131 -84.1197 173° South 447 514 38,000  Level Indianapolis Center
07:50AM 37.2883 -84.1003 173° South 450 518 38,000  Level Indianapolis Center
07:51AM 37.1639 -84.0819 173° South 451 519 38,000  Level Indianapolis Center
07:52AM 37.0403 -84.0636 173° South 448 516 38,000  Level Indianapolis Center
07:53AM 36.9169 -84.0447 173° South 447 514 38,000  Level Indianapolis Center
07:54AM 36.7931 -84.0258 173° South 448 516 38,000  Level Indianapolis Center
07:55AM 36.6703 -84.0086 174° South 445 512 38,000  Level Indianapolis Center
07:56AM 36.5467 -83.9886 173° South 448 516 38,000  Level Indianapolis Center
07:57AM 36.4050 -83.9681 173° South 445 512 38,000  Level Indianapolis Center
07:58AM 36.2822 -83.9494 173° South 442 509 38,000  Level Indianapolis Center
07:59AM 36.1625 -83.9108 165° South 442 509 38,000  Level Indianapolis Center
08:00AM 36.0875 -83.8872 166° South 447 514 38,000  Level Atlanta Center
08:01AM 35.9683 -83.8489 165° South 447 514 38,000  Level Atlanta Center
08:02AM 35.8494 -83.8108 165° South 442 509 38,000  Level Atlanta Center
08:03AM 35.7325 -83.7753 166° South 442 509 38,000  Level Atlanta Center
08:04AM 35.6136 -83.7372 165° South 437 503 38,000  Level Atlanta Center
08:05AM 35.4944 -83.6994 166° South 437 503 38,000  Level Atlanta Center
08:06AM 35.3756 -83.6617 165° South 437 503 38,000  Level Atlanta Center
08:07AM 35.2564 -83.6242 166° South 437 503 38,000  Level Atlanta Center
08:08AM 35.1375 -83.5867 166° South 437 503 38,000  Level Atlanta Center
08:09AM 35.0206 -83.5517 166° South 437 503 38,000  Level Atlanta Center
08:10AM 34.9033 -83.5144 165° South 431 496 38,000  Level Atlanta Center
08:11AM 34.7822 -83.4772 166° South 431 496 38,000  Level Atlanta Center
08:12AM 34.6525 -83.4328 164° South 436 502 38,000  Level Atlanta Center
08:13AM 34.5336 -83.3958 166° South 442 509 38,000  Level Atlanta Center
08:14AM 34.4122 -83.3589 166° South 442 509 38,000  Level Atlanta Center
08:15AM 34.2931 -83.3247 167° South 442 509 38,000  Level Atlanta Center
08:16AM 34.1739 -83.2856 165° South 437 503 38,000  Level Atlanta Center
08:17AM 34.0694 -83.2564 167° South 431 496 38,000  Level Atlanta Center
08:18AM 33.9522 -83.2200 166° South 431 496 38,000  Level Atlanta Center
08:19AM 33.8308 -83.1811 165° South 436 502 38,000  Level Atlanta Center
08:20AM 33.7097 -83.1472 167° South 441 507 38,000  Level Atlanta Center
08:21AM 33.5925 -83.1111 166° South 435 501 38,000  Level Atlanta Center
08:22AM 33.4628 -83.0753 167° South 440 506 38,000  Level Atlanta Center
08:23AM 33.3456 -83.0342 164° South 440 506 38,000  Level Atlanta Center
08:24AM 33.2322 -82.9708 155° Southeast 440 506 38,000  Level Atlanta Center
08:25AM 33.1292 -82.8781 143° Southeast 451 519 38,000  Level Atlanta Center
08:26AM 33.0300 -82.7803 140° Southeast 461 531 38,000  Level Atlanta Center
08:27AM 32.9289 -82.6825 141° Southeast 461 531 38,000  Level Atlanta Center
08:28AM 32.8275 -82.5878 142° Southeast 466 536 38,000  Level Atlanta Center
08:29AM 32.7283 -82.4906 140° Southeast 466 536 38,000  Level Atlanta Center
08:31AM 32.4947 -82.2644 141° Southeast 468 539 38,000  Level Jacksonville Center
08:32AM 32.4047 -82.1839 143° Southeast 458 527 38,000  Level Jacksonville Center
08:33AM 32.2933 -82.0792 142° Southeast 466 536 38,000  Level Jacksonville Center
08:34AM 32.1944 -81.9817 140° Southeast 466 536 38,000  Level Jacksonville Center
08:35AM 32.1022 -81.8994 143° Southeast 466 536 38,000  Level Jacksonville Center
08:36AM 31.9906 -81.7928 141° Southeast 464 534 38,000  Level Jacksonville Center
08:37AM 31.9000 -81.7106 142° Southeast 464 534 38,000  Level Jacksonville Center
08:38AM 31.7883 -81.6094 142° Southeast 464 534 38,000  Level Jacksonville Center
08:39AM 31.6731 -81.5547 158° South 454 522 38,000  Level Jacksonville Center
08:40AM 31.5661 -81.5150 162° South 454 522 38,000  Level Jacksonville Center
08:41AM 31.4339 -81.4608 161° South 454 522 38,000 -60 Level Jacksonville Center
08:42AM 31.3081 -81.4142 162° South 464 534 37,900 -600 Descending Jacksonville Center
08:43AM 31.1886 -81.3675 162° South 464 534 36,900 -900 Descending Jacksonville Center
08:44AM 31.0794 -81.3256 162° South 459 528 36,100 -480 Descending Jacksonville Center
08:45AM 30.9536 -81.2744 161° South 464 534 36,000 -420 Descending Jacksonville Center
08:46AM 30.8297 -81.2281 162° South 470 541 35,300 -900 Descending Jacksonville Center
08:47AM 30.7061 -81.1794 161° South 470 541 34,300 -900 Descending Jacksonville Center
08:48AM 30.5867 -81.1503 168° South 458 527 33,600 -840 Descending Jacksonville Center
08:49AM 30.4569 -81.1456 178° South 457 526 32,700 -960 Descending Jacksonville Center
08:50AM 30.3233 -81.1456 180° South 468 539 31,700 -960 Descending Jacksonville Center
08:51AM 30.1961 -81.1406 178° South 468 539 30,800 -960 Descending Jacksonville Center
08:52AM 30.0622 -81.1358 178° South 468 539 29,800 -1,020 Descending Jacksonville Center
08:53AM 29.9308 -81.1333 179° South 478 550 28,800 -1,200 Descending Jacksonville Center
08:54AM 29.7992 -81.1311 179° South 473 544 27,500 -2,040 Descending Jacksonville Center
08:55AM 29.6739 -81.1261 178° South 473 544 24,800 -2,700 Descending Jacksonville Center
08:56AM 29.5508 -81.1236 179° South 463 533 22,200 -2,700 Descending Jacksonville Center
08:57AM 29.4211 -81.1164 177° South 431 496 19,500 -2,640 Descending Jacksonville Center
08:58AM 29.3083 -81.1136 179° South 419 482 17,000 -2,520 Descending Jacksonville Center
08:59AM 29.1997 -81.1061 177° South 396 456 14,500 -2,280 Descending Jacksonville Center
09:00AM 29.0994 -81.0983 176° South 376 433 12,500 -1,320 Descending Jacksonville Center
09:01AM 29.0075 -81.0906 176° South 335 386 11,900 -480 Descending Jacksonville Center
09:02AM 28.9217 -81.0778 173° South 322 371 11,600 -840 Descending Jacksonville Center
09:03AM 28.8403 -81.0628 171° South 315 362 10,300 -1,440 Descending Jacksonville Center
09:04AM 28.7672 -81.0664 182° South 293 337 8,800 -1,200 Descending Jacksonville Center
09:05AM 28.7500 -81.1000 240° Southwest 242 278 8,500 -1,140 Descending Orlando TRACON
09:06AM 28.7167 -81.1667 240° Southwest 221 254 7,000 -1,440 Descending Orlando TRACON
09:07AM 28.6833 -81.2167 233° Southwest 219 252 5,600 -1,200 Descending Orlando TRACON
09:08AM 28.6167 -81.2500 204° Southwest 182 209 4,500 -960 Descending Orlando TRACON
09:09AM 28.6000 -81.2667 221° Southwest 142 163 3,700 -1,200 Descending Orlando TRACON
09:10AM 28.5667 -81.2833 204° Southwest 127 146 2,400 -1,020 Descending Orlando TRACON
09:11AM 28.5333 -81.2833 180° South 120 138 1,800 -600 Descending Orlando TRACON
09:12AM 28.4833 -81.3000 196° South 124 143 1,200 -660 Descending Orlando TRACON
09:13AM 28.4500 -81.3000 180° South 127 146 500 -720 Descending Orlando TRACON
09:15AM 28.4294 -81.3090 180° South  Level Estimated
09:22AM 28.4294 -81.3090 180° South  Level Estimated
09:23AM 28.4294 -81.3090 180° South  Level Estimated
09:24AM 28.4294 -81.3090 180° South  Level Estimated